createdAt,value
2018-05-31T00:00:35.752Z,23.90
2018-05-31T00:03:04.017Z,23.90
2018-05-31T00:05:31.503Z,23.80
2018-05-31T00:07:59.005Z,23.80
2018-05-31T00:10:26.489Z,23.80
2018-05-31T00:12:54.764Z,23.80
2018-05-31T00:15:23.012Z,23.70
2018-05-31T00:17:50.543Z,23.70
2018-05-31T00:20:18.105Z,23.70
2018-05-31T00:22:45.619Z,23.60
2018-05-31T00:25:13.913Z,23.60
2018-05-31T00:27:41.371Z,23.60
2018-05-31T00:30:09.873Z,23.70
2018-05-31T00:32:37.375Z,23.60
2018-05-31T00:35:04.875Z,23.60
2018-05-31T00:37:32.374Z,23.60
2018-05-31T00:39:59.859Z,23.60
2018-05-31T00:42:28.122Z,23.50
2018-05-31T00:44:55.600Z,23.40
2018-05-31T00:47:23.861Z,23.40
2018-05-31T00:49:51.340Z,23.40
2018-05-31T00:52:19.623Z,23.30
2018-05-31T00:54:47.887Z,23.20
2018-05-31T00:57:16.166Z,23.10
2018-05-31T00:59:44.408Z,22.90
2018-05-31T01:02:11.917Z,22.90
2018-05-31T01:04:39.457Z,22.70
2018-05-31T01:07:07.695Z,22.70
2018-05-31T01:09:35.184Z,22.70
2018-05-31T01:12:03.421Z,22.60
2018-05-31T01:14:31.059Z,22.60
2018-05-31T01:16:58.532Z,22.50
2018-05-31T01:19:26.028Z,22.40
2018-05-31T01:21:54.267Z,22.20
2018-05-31T01:24:21.756Z,22.10
2018-05-31T01:26:49.233Z,22.00
2018-05-31T01:29:17.495Z,21.80
2018-05-31T01:31:45.776Z,21.70
2018-05-31T01:34:14.030Z,21.60
2018-05-31T01:36:41.507Z,21.60
2018-05-31T01:39:17.771Z,21.50
2018-05-31T01:41:46.009Z,21.60
2018-05-31T01:44:13.502Z,21.50
2018-05-31T01:46:41.757Z,21.40
2018-05-31T01:49:09.336Z,21.40
2018-05-31T01:51:36.897Z,21.40
2018-05-31T01:54:05.149Z,21.40
2018-05-31T01:56:32.673Z,21.40
2018-05-31T01:59:00.191Z,21.40
2018-05-31T02:01:28.431Z,21.40
2018-05-31T02:03:55.931Z,21.40
2018-05-31T02:06:24.167Z,21.40
2018-05-31T02:08:51.659Z,21.40
2018-05-31T02:11:19.945Z,21.30
2018-05-31T02:13:48.208Z,21.20
2018-05-31T02:16:16.473Z,21.30
2018-05-31T02:18:43.956Z,21.20
2018-05-31T02:21:12.184Z,21.20
2018-05-31T02:23:39.768Z,21.20
2018-05-31T02:26:08.064Z,21.30
2018-05-31T02:28:36.444Z,21.20
2018-05-31T02:31:03.981Z,21.20
2018-05-31T02:33:32.308Z,21.10
2018-05-31T02:35:59.776Z,21.10
2018-05-31T02:38:27.272Z,21.10
2018-05-31T02:40:54.836Z,21.10
2018-05-31T02:43:23.088Z,21.20
2018-05-31T02:45:50.567Z,21.20
2018-05-31T02:48:18.848Z,21.20
2018-05-31T02:50:47.579Z,21.20
2018-05-31T02:53:15.071Z,21.20
2018-05-31T02:55:42.544Z,21.20
2018-05-31T02:58:10.805Z,21.20
2018-05-31T03:00:38.392Z,21.20
2018-05-31T03:03:05.883Z,21.10
2018-05-31T03:05:33.365Z,21.10
2018-05-31T03:08:00.974Z,21.10
2018-05-31T03:10:28.443Z,21.10
2018-05-31T03:12:55.939Z,21.10
2018-05-31T03:15:23.416Z,21.10
2018-05-31T03:17:51.003Z,21.10
2018-05-31T03:20:18.492Z,21.10
2018-05-31T03:22:46.019Z,21.10
2018-05-31T03:25:13.515Z,21.00
2018-05-31T03:27:41.531Z,21.10
2018-05-31T03:30:10.047Z,21.00
2018-05-31T03:32:37.520Z,21.00
2018-05-31T03:35:05.073Z,21.00
2018-05-31T03:37:32.558Z,21.00
2018-05-31T03:40:00.049Z,21.00
2018-05-31T03:42:28.314Z,20.90
2018-05-31T03:44:56.596Z,20.90
2018-05-31T03:47:24.119Z,20.90
2018-05-31T03:49:52.315Z,20.90
2018-05-31T03:52:19.791Z,20.90
2018-05-31T03:54:48.041Z,20.90
2018-05-31T03:57:15.513Z,21.00
2018-05-31T03:59:43.005Z,21.00
2018-05-31T04:02:10.468Z,20.80
2018-05-31T04:04:37.957Z,20.90
2018-05-31T04:07:05.512Z,21.00
2018-05-31T04:09:33.018Z,21.00
2018-05-31T04:12:01.259Z,21.00
2018-05-31T04:14:28.739Z,21.00
2018-05-31T04:16:57.950Z,21.00
2018-05-31T04:19:25.418Z,21.00
2018-05-31T04:21:52.907Z,21.10
2018-05-31T04:24:20.418Z,21.10
2018-05-31T04:26:48.660Z,21.20
2018-05-31T04:29:16.155Z,21.20
2018-05-31T04:31:44.391Z,21.20
2018-05-31T04:34:12.471Z,21.20
2018-05-31T04:36:39.943Z,21.30
2018-05-31T04:39:08.201Z,21.30
2018-05-31T04:41:35.684Z,21.30
2018-05-31T04:44:03.945Z,21.40
2018-05-31T04:46:31.431Z,21.30
2018-05-31T04:48:58.942Z,21.40
2018-05-31T04:51:26.425Z,21.40
2018-05-31T04:53:54.686Z,21.40
2018-05-31T04:56:22.268Z,21.40
2018-05-31T04:58:50.531Z,21.60
2018-05-31T05:01:18.773Z,21.60
2018-05-31T05:03:46.268Z,21.60
2018-05-31T05:06:14.561Z,21.70
2018-05-31T05:08:42.126Z,21.60
2018-05-31T05:11:10.368Z,21.80
2018-05-31T05:13:37.856Z,21.80
2018-05-31T05:16:05.329Z,21.90
2018-05-31T05:18:33.431Z,22.00
2018-05-31T05:21:00.913Z,22.00
2018-05-31T05:23:29.228Z,22.00
2018-05-31T05:25:56.806Z,22.00
2018-05-31T05:28:24.293Z,22.00
2018-05-31T05:30:51.771Z,22.10
2018-05-31T05:33:19.273Z,22.10
2018-05-31T05:35:46.756Z,22.20
2018-05-31T05:38:14.223Z,22.20
2018-05-31T05:40:41.716Z,22.30
2018-05-31T05:43:09.979Z,22.30
2018-05-31T05:45:38.264Z,22.50
2018-05-31T05:48:06.580Z,22.50
2018-05-31T05:50:34.073Z,22.50
2018-05-31T05:53:01.655Z,22.60
2018-05-31T05:55:29.987Z,22.60
2018-05-31T05:57:57.462Z,22.70
2018-05-31T06:00:25.065Z,22.70
2018-05-31T06:02:53.298Z,22.70
2018-05-31T06:05:20.792Z,22.70
2018-05-31T06:07:48.276Z,22.90
2018-05-31T06:10:15.892Z,22.90
2018-05-31T06:12:43.247Z,22.90
2018-05-31T06:15:11.513Z,23.00
2018-05-31T06:17:38.995Z,23.00
2018-05-31T06:20:07.277Z,23.20
2018-05-31T06:22:35.522Z,23.10
2018-05-31T06:25:03.036Z,23.10
2018-05-31T06:27:30.523Z,23.10
2018-05-31T06:29:58.036Z,23.20
2018-05-31T06:32:25.515Z,23.20
2018-05-31T06:34:53.029Z,23.30
2018-05-31T06:37:21.293Z,23.40
2018-05-31T06:39:48.758Z,23.40
2018-05-31T06:42:17.044Z,23.50
2018-05-31T06:44:45.332Z,23.60
2018-05-31T06:47:13.580Z,23.60
2018-05-31T06:49:41.059Z,23.60
2018-05-31T06:52:09.291Z,23.90
2018-05-31T06:54:36.801Z,23.80
2018-05-31T06:57:04.335Z,24.00
2018-05-31T06:59:31.909Z,24.10
2018-05-31T07:02:00.143Z,24.30
2018-05-31T07:04:27.645Z,24.30
2018-05-31T07:06:55.889Z,24.50
2018-05-31T07:09:23.367Z,24.40
2018-05-31T07:11:51.624Z,24.50
2018-05-31T07:14:19.097Z,24.50
2018-05-31T07:16:47.331Z,24.50
2018-05-31T07:19:14.807Z,24.50
2018-05-31T07:21:42.422Z,24.60
2018-05-31T07:24:09.908Z,24.60
2018-05-31T07:26:37.385Z,24.60
2018-05-31T07:29:04.871Z,24.60
2018-05-31T07:31:33.098Z,24.80
2018-05-31T07:34:00.584Z,24.70
2018-05-31T07:36:28.820Z,24.90
2018-05-31T07:38:56.316Z,24.90
2018-05-31T07:41:23.780Z,24.90
2018-05-31T07:43:51.270Z,24.90
2018-05-31T07:46:18.799Z,25.00
2018-05-31T07:48:47.115Z,25.10
2018-05-31T07:51:14.613Z,25.00
2018-05-31T07:53:42.074Z,25.00
2018-05-31T07:56:09.568Z,25.00
2018-05-31T07:58:37.040Z,25.10
2018-05-31T08:01:04.551Z,25.10
2018-05-31T08:03:32.037Z,25.10
2018-05-31T08:06:00.335Z,25.20
2018-05-31T08:08:27.788Z,25.20
2018-05-31T08:10:55.280Z,25.30
2018-05-31T08:13:22.754Z,25.40
2018-05-31T08:15:51.763Z,25.30
2018-05-31T08:18:20.012Z,25.40
2018-05-31T08:20:47.755Z,25.40
2018-05-31T08:23:15.222Z,25.40
2018-05-31T08:25:43.404Z,25.60
2018-05-31T08:28:10.873Z,25.70
2018-05-31T08:30:38.484Z,25.80
2018-05-31T08:33:06.045Z,25.90
2018-05-31T08:35:33.604Z,26.00
2018-05-31T08:38:01.073Z,26.00
2018-05-31T08:40:28.557Z,26.10
2018-05-31T08:42:56.022Z,26.10
2018-05-31T08:45:23.529Z,26.10
2018-05-31T08:47:51.095Z,26.20
2018-05-31T08:50:18.627Z,26.30
2018-05-31T08:52:46.929Z,26.30
2018-05-31T08:55:14.408Z,26.30
2018-05-31T08:57:41.903Z,26.30
2018-05-31T09:00:09.379Z,26.40
2018-05-31T09:02:36.850Z,26.40
2018-05-31T09:05:04.340Z,26.40
2018-05-31T09:07:31.809Z,26.60
2018-05-31T09:09:59.405Z,26.50
2018-05-31T09:12:26.880Z,26.60
2018-05-31T09:14:54.372Z,26.60
2018-05-31T09:17:21.871Z,26.70
2018-05-31T09:19:50.111Z,26.90
2018-05-31T09:22:17.573Z,26.80
2018-05-31T09:24:45.163Z,26.90
2018-05-31T09:27:13.415Z,27.00
2018-05-31T09:29:40.909Z,27.00
2018-05-31T09:32:09.135Z,27.10
2018-05-31T09:34:36.624Z,27.10
2018-05-31T09:37:04.867Z,27.20
2018-05-31T09:39:32.475Z,27.20
2018-05-31T09:42:00.703Z,27.30
2018-05-31T09:44:28.185Z,27.30
2018-05-31T09:46:55.660Z,27.40
2018-05-31T09:49:23.930Z,27.40
2018-05-31T09:51:52.151Z,27.60
2018-05-31T09:54:19.636Z,27.60
2018-05-31T09:56:47.103Z,27.70
2018-05-31T09:59:14.606Z,27.60
2018-05-31T10:01:42.167Z,27.70
2018-05-31T10:04:09.643Z,27.60
2018-05-31T10:06:37.149Z,27.40
2018-05-31T10:09:05.434Z,27.30
2018-05-31T10:11:33.692Z,27.40
2018-05-31T10:14:01.164Z,27.40
2018-05-31T10:16:29.425Z,27.50
2018-05-31T10:18:57.663Z,27.60
2018-05-31T10:21:25.140Z,27.60
2018-05-31T10:23:52.615Z,27.80
2018-05-31T10:26:20.868Z,27.80
2018-05-31T10:28:48.337Z,27.80
2018-05-31T10:31:15.837Z,28.10
2018-05-31T10:33:43.306Z,28.10
2018-05-31T10:36:16.868Z,28.10
2018-05-31T10:38:45.138Z,27.40
2018-05-31T10:41:12.615Z,27.30
2018-05-31T10:43:40.085Z,27.30
2018-05-31T10:46:07.577Z,27.40
2018-05-31T10:48:35.188Z,27.50
2018-05-31T10:51:03.448Z,27.70
2018-05-31T10:53:31.726Z,27.80
2018-05-31T10:56:00.006Z,27.80
2018-05-31T10:58:27.473Z,27.80
2018-05-31T11:00:55.729Z,27.70
2018-05-31T11:03:23.980Z,27.50
2018-05-31T11:05:51.460Z,27.50
2018-05-31T11:08:18.936Z,27.30
2018-05-31T11:10:47.200Z,27.20
2018-05-31T11:13:15.438Z,27.00
2018-05-31T11:15:42.932Z,27.00
2018-05-31T11:18:11.186Z,27.20
2018-05-31T11:20:38.677Z,27.20
2018-05-31T11:23:06.914Z,27.50
2018-05-31T11:25:34.399Z,27.50
2018-05-31T11:28:02.635Z,28.10
2018-05-31T11:30:30.120Z,28.00
2018-05-31T11:32:57.603Z,28.30
2018-05-31T11:35:25.859Z,28.10
2018-05-31T11:37:53.347Z,28.10
2018-05-31T11:40:20.851Z,28.20
2018-05-31T11:42:48.316Z,28.00
2018-05-31T11:45:15.891Z,28.10
2018-05-31T11:47:44.131Z,28.50
2018-05-31T11:50:12.211Z,28.50
2018-05-31T11:52:39.677Z,28.30
2018-05-31T11:55:07.259Z,28.40
2018-05-31T11:57:35.514Z,28.40
2018-05-31T12:00:03.128Z,28.40
2018-05-31T12:02:30.599Z,28.50
2018-05-31T12:04:58.088Z,28.60
2018-05-31T12:07:25.604Z,28.60
2018-05-31T12:09:53.159Z,28.50
2018-05-31T12:12:20.640Z,28.70
2018-05-31T12:14:48.157Z,28.70
2018-05-31T12:17:16.432Z,28.70
2018-05-31T12:19:44.669Z,28.80
2018-05-31T12:22:12.165Z,28.80
2018-05-31T12:24:39.643Z,29.00
2018-05-31T12:27:07.130Z,28.80
2018-05-31T12:29:34.656Z,29.10
2018-05-31T12:32:02.147Z,29.20
2018-05-31T12:34:29.615Z,29.40
2018-05-31T12:36:58.667Z,29.60
2018-05-31T12:39:26.188Z,29.70
2018-05-31T12:41:54.450Z,29.70
2018-05-31T12:44:21.913Z,29.60
2018-05-31T12:46:50.190Z,29.90
2018-05-31T12:49:17.657Z,29.90
2018-05-31T12:51:45.929Z,30.20
2018-05-31T12:54:14.182Z,30.10
2018-05-31T12:56:41.776Z,30.00
2018-05-31T12:59:10.039Z,30.50
2018-05-31T13:01:38.292Z,30.50
2018-05-31T13:04:05.765Z,30.50
2018-05-31T13:06:33.336Z,30.80
2018-05-31T13:09:01.643Z,30.80
2018-05-31T13:11:29.130Z,30.80
2018-05-31T13:13:56.608Z,31.00
2018-05-31T13:16:24.093Z,31.40
2018-05-31T13:18:52.360Z,31.80
2018-05-31T13:21:20.618Z,32.10
2018-05-31T13:23:48.096Z,32.10
2018-05-31T13:26:16.361Z,32.10
2018-05-31T13:28:44.631Z,32.30
2018-05-31T13:31:12.131Z,32.30
2018-05-31T13:33:39.646Z,32.70
2018-05-31T13:36:07.253Z,33.20
2018-05-31T13:38:34.735Z,33.70
2018-05-31T13:41:02.238Z,33.10
2018-05-31T13:43:30.477Z,32.50
2018-05-31T13:45:57.978Z,32.50
2018-05-31T13:48:26.276Z,32.80
2018-05-31T13:50:53.763Z,32.80
2018-05-31T13:53:21.240Z,32.70
2018-05-31T13:55:48.783Z,32.60
2018-05-31T13:58:16.250Z,32.80
2018-05-31T14:00:43.764Z,33.30
2018-05-31T14:03:11.240Z,33.50
2018-05-31T14:05:38.727Z,33.50
2018-05-31T14:08:06.201Z,33.90
2018-05-31T14:10:34.445Z,33.50
2018-05-31T14:13:01.930Z,33.50
2018-05-31T14:15:30.245Z,33.90
2018-05-31T14:17:57.702Z,33.90
2018-05-31T14:20:25.213Z,33.80
2018-05-31T14:22:52.790Z,34.10
2018-05-31T14:25:21.032Z,34.40
2018-05-31T14:27:48.505Z,34.30
2018-05-31T14:30:16.004Z,34.10
2018-05-31T14:32:43.484Z,33.90
2018-05-31T14:35:10.946Z,33.20
2018-05-31T14:37:38.437Z,33.10
2018-05-31T14:40:05.932Z,32.70
2018-05-31T14:42:33.427Z,32.50
2018-05-31T14:45:00.896Z,32.70
2018-05-31T14:47:28.379Z,32.00
2018-05-31T14:49:56.675Z,33.30
2018-05-31T14:52:24.180Z,33.30
2018-05-31T14:54:51.648Z,34.00
2018-05-31T14:57:19.132Z,33.70
2018-05-31T14:59:47.365Z,35.00
2018-05-31T15:02:14.847Z,35.00
2018-05-31T15:04:42.328Z,35.40
2018-05-31T15:07:10.623Z,35.60
2018-05-31T15:09:38.103Z,35.60
2018-05-31T15:12:05.592Z,35.50
2018-05-31T15:14:33.060Z,36.40
2018-05-31T15:17:01.337Z,36.10
2018-05-31T15:19:29.604Z,35.30
2018-05-31T15:21:57.100Z,35.30
2018-05-31T15:24:24.568Z,34.90
2018-05-31T15:26:52.042Z,35.50
2018-05-31T15:29:20.247Z,35.80
2018-05-31T15:31:47.727Z,35.80
2018-05-31T15:34:15.217Z,34.40
2018-05-31T15:36:42.713Z,33.60
2018-05-31T15:39:11.143Z,33.10
2018-05-31T15:41:38.707Z,33.60
2018-05-31T15:44:06.262Z,33.60
2018-05-31T15:46:33.820Z,33.50
2018-05-31T15:49:01.304Z,34.20
2018-05-31T15:51:28.838Z,34.50
2018-05-31T15:53:56.321Z,35.30
2018-05-31T15:56:23.820Z,36.20
2018-05-31T15:58:52.085Z,34.80
2018-05-31T16:01:19.642Z,34.70
2018-05-31T16:03:47.109Z,35.00
2018-05-31T16:06:15.375Z,35.20
2018-05-31T16:08:42.860Z,35.20
2018-05-31T16:11:10.391Z,35.30
2018-05-31T16:13:37.859Z,35.60
2018-05-31T16:16:06.125Z,35.30
2018-05-31T16:18:33.595Z,35.30
2018-05-31T16:21:01.853Z,35.20
2018-05-31T16:23:29.359Z,35.10
2018-05-31T16:25:56.839Z,34.50
2018-05-31T16:28:25.086Z,33.80
2018-05-31T16:30:52.561Z,33.90
2018-05-31T16:33:20.017Z,33.70
2018-05-31T16:35:48.314Z,32.40
2018-05-31T16:38:16.547Z,32.50
2018-05-31T16:40:44.074Z,32.50
2018-05-31T16:43:12.311Z,32.20
2018-05-31T16:45:40.556Z,31.80
2018-05-31T16:48:08.080Z,31.80
2018-05-31T16:50:36.304Z,31.60
2018-05-31T16:53:03.836Z,31.50
2018-05-31T16:55:31.378Z,31.20
2018-05-31T16:57:58.863Z,31.30
2018-05-31T17:00:26.343Z,31.40
2018-05-31T17:02:53.860Z,31.50
2018-05-31T17:05:21.319Z,31.70
2018-05-31T17:07:48.825Z,31.70
2018-05-31T17:10:17.075Z,30.70
2018-05-31T17:12:44.604Z,30.70
2018-05-31T17:15:12.048Z,30.70
2018-05-31T17:17:39.567Z,30.80
2018-05-31T17:20:07.068Z,30.90
2018-05-31T17:22:34.548Z,30.60
2018-05-31T17:25:02.025Z,30.40
2018-05-31T17:27:29.596Z,30.50
2018-05-31T17:29:57.062Z,30.50
2018-05-31T17:32:25.314Z,30.00
2018-05-31T17:34:52.783Z,30.00
2018-05-31T17:37:21.073Z,30.10
2018-05-31T17:39:49.313Z,29.80
2018-05-31T17:42:16.838Z,29.90
2018-05-31T17:44:44.296Z,29.90
2018-05-31T17:47:11.775Z,30.10
2018-05-31T17:49:39.313Z,30.30
2018-05-31T17:52:06.877Z,29.80
2018-05-31T17:54:34.343Z,29.80
2018-05-31T17:57:01.832Z,30.00
2018-05-31T17:59:29.801Z,29.80
2018-05-31T18:01:57.383Z,29.80
2018-05-31T18:04:24.955Z,29.90
2018-05-31T18:06:52.436Z,29.70
2018-05-31T18:09:19.913Z,29.70
2018-05-31T18:11:47.452Z,29.30
2018-05-31T18:14:14.912Z,29.10
2018-05-31T18:16:42.398Z,28.90
2018-05-31T18:19:09.889Z,28.90
2018-05-31T18:21:38.136Z,29.00
2018-05-31T18:24:05.608Z,29.00
2018-05-31T18:26:33.195Z,29.10
2018-05-31T18:29:00.666Z,29.10
2018-05-31T18:31:28.156Z,29.10
2018-05-31T18:33:55.625Z,29.10
2018-05-31T18:36:23.886Z,28.90
2018-05-31T18:38:51.380Z,28.90
2018-05-31T18:41:19.628Z,28.80
2018-05-31T18:43:47.100Z,28.70
2018-05-31T18:46:14.569Z,28.70
2018-05-31T18:48:42.268Z,28.60
2018-05-31T18:51:09.825Z,28.50
2018-05-31T18:53:37.301Z,28.50
2018-05-31T18:56:04.779Z,28.50
2018-05-31T18:58:32.261Z,28.30
2018-05-31T19:00:59.763Z,28.30
2018-05-31T19:03:27.253Z,28.30
2018-05-31T19:05:54.814Z,28.20
2018-05-31T19:08:23.815Z,28.00
2018-05-31T19:10:51.299Z,28.10
2018-05-31T19:16:16.215Z,27.90
2018-05-31T19:18:50.151Z,27.70
2018-05-31T19:21:17.614Z,27.70
2018-05-31T19:23:45.109Z,27.70
2018-05-31T19:26:12.580Z,27.70
2018-05-31T19:28:40.080Z,27.60
2018-05-31T19:31:10.396Z,27.60
2018-05-31T19:33:37.894Z,27.50
2018-05-31T19:36:11.009Z,27.50
2018-05-31T19:38:38.512Z,27.40
2018-05-31T19:41:06.032Z,27.40
2018-05-31T19:43:40.008Z,27.20
2018-05-31T19:46:07.473Z,27.20
2018-05-31T19:48:34.963Z,27.50
2018-05-31T19:51:03.203Z,27.10
2018-05-31T19:53:36.377Z,27.10
2018-05-31T19:56:03.845Z,27.10
2018-05-31T19:58:37.159Z,27.10
2018-05-31T20:01:10.486Z,27.00
2018-05-31T20:03:37.975Z,27.00
2018-05-31T20:06:05.489Z,26.90
2018-05-31T20:08:33.969Z,26.90
2018-05-31T20:11:02.215Z,26.80
2018-05-31T20:13:29.714Z,26.80
2018-05-31T20:15:57.193Z,26.70
2018-05-31T20:18:24.690Z,26.70
2018-05-31T20:20:52.160Z,26.60
2018-05-31T20:23:20.414Z,26.60
2018-05-31T20:25:47.881Z,26.60
2018-05-31T20:28:15.447Z,26.60
2018-05-31T20:30:42.977Z,26.50
2018-05-31T20:33:10.420Z,26.50
2018-05-31T20:35:37.891Z,26.50
2018-05-31T20:38:05.380Z,26.40
2018-05-31T20:40:32.852Z,26.40
2018-05-31T20:43:01.133Z,26.30
2018-05-31T20:45:29.370Z,26.30
2018-05-31T20:47:56.866Z,26.30
2018-05-31T20:50:24.445Z,26.30
2018-05-31T20:52:51.936Z,26.30
2018-05-31T20:55:19.395Z,26.20
2018-05-31T20:57:46.988Z,26.20
2018-05-31T21:00:15.225Z,26.00
2018-05-31T21:02:42.710Z,26.00
2018-05-31T21:05:10.196Z,26.00
2018-05-31T21:07:37.708Z,25.90
2018-05-31T21:10:05.171Z,25.90
2018-05-31T21:12:32.654Z,25.90
2018-05-31T21:15:00.956Z,25.90
2018-05-31T21:17:29.187Z,25.90
2018-05-31T21:19:56.690Z,25.90
2018-05-31T21:22:24.161Z,25.80
2018-05-31T21:24:51.683Z,25.80
2018-05-31T21:27:19.919Z,25.70
2018-05-31T21:29:47.409Z,25.70
2018-05-31T21:32:15.644Z,25.70
2018-05-31T21:34:43.128Z,25.70
2018-05-31T21:37:10.595Z,25.60
2018-05-31T21:39:38.871Z,25.60
2018-05-31T21:42:07.095Z,25.60
2018-05-31T21:44:34.577Z,25.60
2018-05-31T21:47:02.053Z,25.60
2018-05-31T21:49:30.304Z,25.60
2018-05-31T21:51:58.098Z,25.50
2018-05-31T21:54:26.345Z,25.50
2018-05-31T21:56:53.817Z,25.50
2018-05-31T21:59:21.323Z,25.50
2018-05-31T22:01:48.787Z,25.50
2018-05-31T22:04:16.273Z,25.40
2018-05-31T22:06:43.793Z,25.40
2018-05-31T22:09:11.287Z,25.40
2018-05-31T22:11:38.762Z,25.30
2018-05-31T22:14:07.030Z,25.20
2018-05-31T22:16:34.523Z,25.20
2018-05-31T22:19:02.784Z,25.20
2018-05-31T22:21:31.020Z,25.20
2018-05-31T22:23:58.515Z,25.10
2018-05-31T22:26:26.770Z,25.10
2018-05-31T22:28:54.274Z,25.10
2018-05-31T22:31:21.737Z,25.10
2018-05-31T22:33:49.247Z,24.90
2018-05-31T22:36:16.712Z,25.00
2018-05-31T22:38:44.213Z,24.80
2018-05-31T22:41:11.681Z,24.80
2018-05-31T22:43:39.175Z,24.80
2018-05-31T22:46:06.642Z,24.80
2018-05-31T22:48:34.174Z,24.80
2018-05-31T22:51:01.658Z,24.90
2018-05-31T22:53:29.924Z,24.90
2018-05-31T22:55:57.381Z,24.90
2018-05-31T22:58:24.874Z,24.90
2018-05-31T23:00:52.339Z,24.80
2018-05-31T23:03:19.847Z,24.80
2018-05-31T23:05:47.318Z,24.80
2018-05-31T23:08:14.911Z,24.80
2018-05-31T23:10:42.386Z,24.80
2018-05-31T23:13:09.874Z,24.80
2018-05-31T23:15:37.350Z,24.80
2018-05-31T23:18:05.284Z,24.80
2018-05-31T23:20:32.789Z,24.70
2018-05-31T23:23:01.052Z,24.80
2018-05-31T23:25:28.538Z,24.70
2018-05-31T23:27:56.000Z,24.70
2018-05-31T23:30:23.506Z,24.80
2018-05-31T23:32:50.975Z,24.70
2018-05-31T23:35:18.471Z,24.60
2018-05-31T23:37:45.951Z,24.60
2018-05-31T23:40:13.511Z,24.60
2018-05-31T23:42:40.973Z,24.60
2018-05-31T23:45:08.471Z,24.60
2018-05-31T23:47:35.968Z,24.60
2018-05-31T23:50:03.489Z,24.60
2018-05-31T23:52:30.980Z,24.60
2018-05-31T23:54:58.463Z,24.60
2018-05-31T23:57:25.970Z,24.50
2018-05-31T23:59:54.223Z,24.50
